Time;durP1;ratioP1;P1;durP2;ratioP2;P2;SDS_P1;SDS_P2;PMS_P1;PMS_P2;Temp;Humidity;BMP_temperature;BMP_pressure;BME280_temperature;BME280_humidity;BME280_pressure;Samples;Min_cycle;Max_cycle;Signal;HPM_P1;HPM_P2
2023/05/10 00:02:01;;;;;;;4.47;4.07;;;15.10;99.90;;;;;;5078640;28;20599;-62
2023/05/10 00:04:28;;;;;;;4.03;3.73;;;15.00;99.90;;;;;;5077854;28;20466;-62
2023/05/10 00:06:55;;;;;;;4.13;3.80;;;15.00;99.90;;;;;;5079154;28;20478;-62
2023/05/10 00:09:22;;;;;;;5.70;4.57;;;15.00;99.90;;;;;;5075063;28;20480;-61
2023/05/10 00:11:50;;;;;;;4.40;4.10;;;15.10;99.90;;;;;;5086904;28;20834;-62
2023/05/10 00:14:18;;;;;;;4.50;4.10;;;15.10;99.90;;;;;;5079299;28;20477;-62
2023/05/10 00:16:45;;;;;;;4.73;4.40;;;15.20;99.90;;;;;;5078080;28;20482;-62
2023/05/10 00:19:12;;;;;;;5.13;4.63;;;15.20;99.90;;;;;;5075940;28;20821;-62
2023/05/10 00:21:38;;;;;;;5.10;4.60;;;15.10;99.90;;;;;;5077633;28;20493;-62
2023/05/10 00:24:06;;;;;;;4.90;4.50;;;15.20;99.90;;;;;;5078212;28;20484;-62
2023/05/10 00:26:33;;;;;;;6.73;5.80;;;15.10;99.90;;;;;;5079107;28;21257;-62
2023/05/10 00:29:01;;;;;;;7.33;6.53;;;15.10;99.90;;;;;;5075792;28;20482;-62
2023/05/10 00:31:28;;;;;;;9.60;6.43;;;15.10;99.90;;;;;;5075896;28;21062;-62
2023/05/10 00:33:55;;;;;;;6.63;6.03;;;15.10;99.90;;;;;;5074740;28;20979;-62
2023/05/10 00:36:22;;;;;;;6.13;4.77;;;15.10;99.90;;;;;;5075840;28;20485;-62
2023/05/10 00:38:49;;;;;;;5.43;5.00;;;15.10;99.90;;;;;;5076320;28;20470;-62
2023/05/10 00:41:16;;;;;;;5.83;5.33;;;15.00;99.90;;;;;;5076863;27;20979;-62
2023/05/10 00:43:43;;;;;;;8.47;5.57;;;14.90;99.90;;;;;;5091730;27;20474;-62
2023/05/10 00:46:14;;;;;;;6.07;4.70;;;14.90;99.90;;;;;;5074693;28;20667;-62
2023/05/10 00:48:41;;;;;;;5.70;5.10;;;14.90;99.90;;;;;;5072286;28;20479;-62
2023/05/10 00:51:07;;;;;;;6.90;5.90;;;15.00;99.90;;;;;;5075443;28;20478;-62
2023/05/10 00:53:36;;;;;;;6.63;6.00;;;14.90;99.90;;;;;;5074302;28;20819;-62
2023/05/10 00:56:03;;;;;;;5.60;5.10;;;15.00;99.90;;;;;;5074595;28;20470;-62
2023/05/10 00:58:30;;;;;;;6.47;5.80;;;15.00;99.90;;;;;;5074968;28;20858;-62
2023/05/10 01:00:58;;;;;;;6.90;5.60;;;15.00;99.90;;;;;;5075823;28;20478;-62
2023/05/10 01:03:27;;;;;;;7.63;5.27;;;15.00;99.90;;;;;;5099547;27;20472;-62
2023/05/10 01:05:54;;;;;;;7.03;6.30;;;14.90;99.90;;;;;;5078094;27;21328;-62
2023/05/10 01:08:21;;;;;;;6.07;5.47;;;15.00;99.90;;;;;;5072924;28;20470;-62
2023/05/10 01:10:48;;;;;;;7.80;5.23;;;15.00;99.90;;;;;;5073262;28;20827;-62
2023/05/10 01:13:28;;;;;;;5.30;4.80;;;15.10;99.90;;;;;;5073279;28;20489;-62
2023/05/10 01:15:55;;;;;;;5.20;4.70;;;15.10;99.90;;;;;;5078274;27;20995;-62
2023/05/10 01:18:22;;;;;;;7.97;7.17;;;15.10;99.90;;;;;;5092999;27;20478;-63
2023/05/10 01:21:10;;;;;;;8.20;5.73;;;15.00;99.90;;;;;;5075138;28;20478;-62
2023/05/10 01:24:18;;;;;;;7.07;6.37;;;15.00;99.90;;;;;;5075457;28;20879;-62
2023/05/10 01:27:12;;;;;;;6.53;6.00;;;15.00;99.90;;;;;;5060553;27;20993;-62
2023/05/10 01:30:02;;;;;;;4.80;4.40;;;15.00;99.90;;;;;;5084584;27;20469;-62
2023/05/10 01:32:37;;;;;;;5.53;5.03;;;15.00;99.90;;;;;;5071222;28;20546;-62
2023/05/10 01:35:08;;;;;;;6.33;5.63;;;15.00;99.90;;;;;;5061590;28;20473;-61
2023/05/10 01:37:44;;;;;;;5.60;5.07;;;15.00;99.90;;;;;;5073228;28;20470;-62
2023/05/10 01:40:20;;;;;;;9.23;5.80;;;15.00;99.90;;;;;;5080632;28;20470;-62
2023/05/10 01:42:52;;;;;;;6.17;5.67;;;15.00;99.90;;;;;;5088271;28;20926;-62
2023/05/10 01:45:26;;;;;;;6.50;5.90;;;15.00;99.90;;;;;;5079332;28;20995;-62
2023/05/10 01:48:29;;;;;;;6.20;5.53;;;14.90;99.90;;;;;;5085408;28;20500;-62
2023/05/10 01:50:58;;;;;;;12.13;7.20;;;14.90;99.90;;;;;;5099570;27;20558;-62
2023/05/10 01:53:25;;;;;;;7.73;6.53;;;14.90;99.90;;;;;;5078139;28;20481;-62
2023/05/10 01:55:56;;;;;;;8.40;6.43;;;14.90;99.90;;;;;;5076567;28;20922;-62
2023/05/10 01:58:28;;;;;;;9.20;8.17;;;14.90;99.90;;;;;;5081345;28;21209;-62
2023/05/10 02:00:55;;;;;;;10.07;6.87;;;14.80;99.90;;;;;;5081410;28;20474;-62
2023/05/10 02:03:25;;;;;;;7.13;6.00;;;14.80;99.90;;;;;;5097870;28;20482;-62
2023/05/10 02:05:55;;;;;;;13.37;7.30;;;14.80;99.90;;;;;;5089947;28;20484;-62
2023/05/10 02:08:23;;;;;;;6.90;6.10;;;14.90;99.90;;;;;;5079674;28;20547;-62
2023/05/10 02:10:53;;;;;;;11.93;6.57;;;14.80;99.90;;;;;;5090704;27;20877;-62
2023/05/10 02:13:22;;;;;;;8.00;7.20;;;14.90;99.90;;;;;;5082741;28;20894;-62
2023/05/10 02:15:51;;;;;;;8.60;7.13;;;14.90;99.90;;;;;;5080821;28;20814;-62
2023/05/10 02:18:19;;;;;;;17.77;8.63;;;14.90;99.90;;;;;;5091007;27;20970;-62
2023/05/10 02:20:47;;;;;;;7.77;7.00;;;14.90;99.90;;;;;;5099858;27;20477;-61
2023/05/10 02:23:16;;;;;;;8.17;7.27;;;14.90;99.90;;;;;;5084829;27;20504;-62
2023/05/10 02:25:45;;;;;;;9.17;7.00;;;14.90;99.90;;;;;;5075922;28;20475;-62
2023/05/10 02:28:14;;;;;;;7.97;7.17;;;15.00;99.90;;;;;;5094847;27;20977;-62
2023/05/10 02:30:42;;;;;;;7.23;6.43;;;15.00;99.90;;;;;;5093410;28;20481;-62
2023/05/10 02:33:09;;;;;;;8.17;6.70;;;15.00;99.90;;;;;;5077768;28;20485;-62
2023/05/10 02:35:38;;;;;;;13.40;7.67;;;15.00;99.90;;;;;;5079687;28;20510;-62
2023/05/10 02:38:07;;;;;;;10.77;8.17;;;14.80;99.90;;;;;;5079117;28;20474;-62
2023/05/10 02:40:37;;;;;;;8.13;7.33;;;14.80;99.90;;;;;;5085433;28;20485;-62
2023/05/10 02:43:07;;;;;;;7.87;7.07;;;14.80;99.90;;;;;;5069416;28;21004;-63
2023/05/10 02:45:36;;;;;;;14.80;7.53;;;14.80;99.90;;;;;;5079727;28;20486;-62
2023/05/10 02:48:03;;;;;;;9.30;8.40;;;14.80;99.90;;;;;;5082046;28;20478;-62
2023/05/10 02:50:33;;;;;;;8.80;7.03;;;14.70;99.90;;;;;;5098843;28;20462;-62
2023/05/10 02:53:03;;;;;;;10.80;8.47;;;14.80;99.90;;;;;;5079408;28;20479;-62
2023/05/10 02:55:37;;;;;;;9.97;8.53;;;14.70;99.90;;;;;;5096004;27;20494;-62
2023/05/10 02:58:05;;;;;;;9.50;8.10;;;14.80;99.90;;;;;;5078381;28;20470;-62
2023/05/10 03:00:32;;;;;;;10.47;9.03;;;14.80;99.90;;;;;;5094914;28;20474;-62
2023/05/10 03:02:59;;;;;;;11.83;8.87;;;14.80;99.90;;;;;;5079422;28;20493;-62
2023/05/10 03:05:26;;;;;;;13.23;8.43;;;14.80;99.90;;;;;;5087708;28;21052;-62
2023/05/10 03:07:54;;;;;;;9.90;8.00;;;14.70;99.90;;;;;;5098520;28;20827;-62
2023/05/10 03:10:23;;;;;;;12.23;7.87;;;;;;;;;;5088351;28;20478;-62
2023/05/10 03:13:06;;;;;;;12.10;9.40;;;14.80;99.90;;;;;;5071311;28;20505;-62
2023/05/10 03:15:43;;;;;;;13.17;9.83;;;14.70;99.90;;;;;;5092293;27;20470;-62
2023/05/10 03:18:13;;;;;;;13.37;9.30;;;14.60;99.90;;;;;;5090641;27;20847;-62
2023/05/10 03:20:46;;;;;;;11.57;10.00;;;14.70;99.90;;;;;;5099530;28;20470;-62
2023/05/10 03:23:21;;;;;;;15.00;10.23;;;14.70;99.90;;;;;;5066822;28;20855;-62
2023/05/10 03:25:50;;;;;;;10.07;8.47;;;14.70;99.90;;;;;;5093043;28;20500;-63
2023/05/10 03:28:21;;;;;;;10.57;8.67;;;14.70;99.90;;;;;;5089541;28;20485;-63
2023/05/10 03:30:48;;;;;;;10.17;8.47;;;14.80;99.90;;;;;;5081268;28;21117;-63
2023/05/10 03:33:15;;;;;;;11.20;9.27;;;14.90;99.90;;;;;;5083307;28;20512;-62
2023/05/10 03:35:45;;;;;;;10.60;6.60;;;14.90;99.90;;;;;;5093598;28;20574;-62
2023/05/10 03:38:12;;;;;;;6.83;6.13;;;14.90;99.90;;;;;;5085124;28;20868;-62
2023/05/10 03:40:39;;;;;;;6.10;4.90;;;14.90;99.90;;;;;;5091315;27;20484;-62
2023/05/10 03:43:06;;;;;;;5.50;5.00;;;14.90;99.90;;;;;;5092440;27;20529;-62
2023/05/10 03:45:34;;;;;;;5.87;5.10;;;14.80;99.90;;;;;;5100717;28;20606;-61
2023/05/10 03:48:01;;;;;;;6.80;5.10;;;14.80;99.90;;;;;;5082821;28;20489;-61
2023/05/10 03:50:28;;;;;;;7.37;5.60;;;14.80;99.90;;;;;;5083570;28;20478;-61
2023/05/10 03:52:55;;;;;;;7.03;5.87;;;14.70;99.90;;;;;;5091095;27;20921;-62
2023/05/10 03:55:22;;;;;;;8.13;5.87;;;14.70;99.90;;;;;;5087072;27;20477;-62
2023/05/10 03:57:49;;;;;;;4.23;3.80;;;14.50;99.90;;;;;;5078713;28;20509;-61
2023/05/10 04:00:16;;;;;;;5.83;5.23;;;14.50;99.90;;;;;;5081107;27;20477;-62
2023/05/10 04:02:45;;;;;;;4.53;4.07;;;14.50;99.90;;;;;;5092184;27;21282;-62
2023/05/10 04:05:12;;;;;;;6.50;5.90;;;14.40;99.90;;;;;;5079780;28;20489;-62
2023/05/10 04:07:39;;;;;;;7.53;5.40;;;14.40;99.90;;;;;;5079806;28;20482;-62
2023/05/10 04:10:06;;;;;;;5.77;5.27;;;14.40;99.90;;;;;;5101680;27;20481;-61
2023/05/10 04:12:33;;;;;;;4.40;4.00;;;14.40;99.90;;;;;;5091849;28;20477;-62
2023/05/10 04:15:00;;;;;;;4.63;3.60;;;14.40;99.90;;;;;;5100715;28;20480;-61
2023/05/10 04:17:27;;;;;;;4.37;3.97;;;14.40;99.90;;;;;;5083977;28;20482;-62
2023/05/10 04:19:57;;;;;;;7.10;4.20;;;14.30;99.90;;;;;;5081806;28;20478;-61
2023/05/10 04:22:24;;;;;;;4.03;3.40;;;14.30;99.90;;;;;;5093251;28;20484;-61
2023/05/10 04:24:50;;;;;;;4.07;3.00;;;14.30;99.90;;;;;;5088400;28;20470;-62
2023/05/10 04:27:17;;;;;;;3.80;3.00;;;14.30;99.90;;;;;;5087635;28;20505;-62
2023/05/10 04:29:44;;;;;;;4.80;3.47;;;14.40;99.90;;;;;;5087832;28;20473;-61
2023/05/10 04:32:11;;;;;;;4.93;3.40;;;14.30;99.90;;;;;;5092222;27;20481;-61
2023/05/10 04:34:38;;;;;;;6.53;4.03;;;14.30;99.90;;;;;;5086784;27;20561;-62
2023/05/10 04:37:07;;;;;;;4.30;3.90;;;14.20;99.90;;;;;;5088204;27;20584;-62
2023/05/10 04:39:34;;;;;;;5.80;4.40;;;14.20;99.90;;;;;;5099634;28;20489;-61
2023/05/10 04:42:03;;;;;;;3.70;3.40;;;14.10;99.90;;;;;;5094592;28;20494;-61
2023/05/10 04:44:30;;;;;;;5.23;3.73;;;14.20;99.90;;;;;;5082420;28;20966;-61
2023/05/10 04:46:57;;;;;;;6.13;4.17;;;14.10;99.90;;;;;;5083686;28;20489;-61
2023/05/10 04:49:24;;;;;;;5.73;4.10;;;14.20;99.90;;;;;;5100010;27;20479;-61
2023/05/10 04:51:51;;;;;;;5.13;4.17;;;14.30;99.90;;;;;;5086166;28;20472;-61
2023/05/10 04:54:19;;;;;;;7.80;3.47;;;14.50;99.90;;;;;;5089282;27;20482;-61
2023/05/10 04:56:46;;;;;;;2.80;2.60;;;14.50;99.90;;;;;;5106538;27;20495;-61
2023/05/10 04:59:13;;;;;;;4.23;3.40;;;14.60;99.90;;;;;;5079492;28;20478;-62
2023/05/10 05:01:40;;;;;;;3.13;2.83;;;14.70;99.90;;;;;;5084061;28;20484;-61
2023/05/10 05:04:07;;;;;;;3.80;3.33;;;14.60;99.90;;;;;;5092842;28;20488;-61
2023/05/10 05:06:34;;;;;;;3.67;3.33;;;14.70;99.90;;;;;;5087107;28;20493;-61
2023/05/10 05:09:01;;;;;;;3.57;3.27;;;14.70;99.90;;;;;;5083722;28;20489;-62
2023/05/10 05:11:29;;;;;;;3.27;3.00;;;14.70;99.90;;;;;;5078975;28;20820;-61
2023/05/10 05:13:58;;;;;;;4.40;3.80;;;14.70;99.90;;;;;;5087039;28;20485;-61
2023/05/10 05:16:26;;;;;;;4.97;4.00;;;14.70;99.90;;;;;;5100041;28;20477;-61
2023/05/10 05:18:53;;;;;;;5.50;3.30;;;14.70;99.90;;;;;;5095338;27;20488;-62
2023/05/10 05:21:21;;;;;;;4.43;4.00;;;14.80;99.90;;;;;;5113833;27;20480;-62
2023/05/10 05:23:48;;;;;;;3.83;3.43;;;14.70;99.90;;;;;;5086105;27;20482;-61
2023/05/10 05:26:15;;;;;;;4.87;4.00;;;14.70;99.90;;;;;;5070059;28;20792;-62
2023/05/10 05:28:44;;;;;;;4.80;3.83;;;14.70;99.90;;;;;;5092501;28;20528;-62
2023/05/10 05:31:11;;;;;;;4.17;3.73;;;14.80;99.90;;;;;;5084431;28;20474;-61
2023/05/10 05:33:38;;;;;;;4.10;3.70;;;14.90;99.90;;;;;;5077337;28;20478;-62
2023/05/10 05:36:06;;;;;;;4.03;3.30;;;14.80;99.90;;;;;;5077530;28;20822;-62
2023/05/10 05:38:33;;;;;;;9.43;3.90;;;14.80;99.90;;;;;;5064760;28;20470;-62
2023/05/10 05:41:00;;;;;;;5.70;3.70;;;14.80;99.90;;;;;;5099785;28;20482;-62
2023/05/10 05:43:27;;;;;;;3.33;3.10;;;14.80;99.90;;;;;;5083619;28;20482;-62
2023/05/10 05:45:57;;;;;;;4.00;2.80;;;14.70;99.90;;;;;;5093484;27;20488;-61
2023/05/10 05:48:24;;;;;;;2.77;2.50;;;14.70;99.90;;;;;;5076580;28;20502;-61
2023/05/10 05:50:55;;;;;;;3.97;3.20;;;14.70;99.90;;;;;;5098087;28;20556;-61
2023/05/10 05:53:22;;;;;;;7.03;3.50;;;14.70;99.90;;;;;;5085469;28;21029;-62
2023/05/10 05:55:55;;;;;;;3.67;3.30;;;14.70;99.90;;;;;;5097095;28;20484;-62
2023/05/10 05:58:22;;;;;;;3.37;3.17;;;14.70;99.90;;;;;;5074791;28;21324;-61
2023/05/10 06:00:49;;;;;;;6.27;3.23;;;14.80;99.90;;;;;;5085635;28;20487;-62
2023/05/10 06:03:17;;;;;;;3.40;2.90;;;14.70;99.90;;;;;;5079223;28;21017;-62
2023/05/10 06:05:44;;;;;;;3.40;3.10;;;14.80;99.90;;;;;;5095464;27;20833;-61
2023/05/10 06:08:11;;;;;;;3.23;2.93;;;14.90;99.90;;;;;;5071458;28;20478;-62
2023/05/10 06:10:38;;;;;;;3.50;3.20;;;14.90;99.90;;;;;;5076050;28;21306;-62
2023/05/10 06:13:05;;;;;;;4.30;2.87;;;15.00;99.90;;;;;;5082425;28;20472;-61
2023/05/10 06:15:33;;;;;;;8.23;3.80;;;14.80;99.90;;;;;;5077813;28;20476;-61
2023/05/10 06:18:00;;;;;;;6.40;3.43;;;14.80;99.90;;;;;;5074698;28;20613;-62
2023/05/10 06:20:28;;;;;;;4.40;3.97;;;14.90;99.90;;;;;;5074959;28;20489;-62
2023/05/10 06:22:55;;;;;;;6.43;3.73;;;14.80;99.90;;;;;;5094563;27;20483;-62
2023/05/10 06:25:22;;;;;;;2.93;2.50;;;14.80;99.90;;;;;;5084170;27;20462;-62
2023/05/10 06:27:49;;;;;;;3.40;3.10;;;14.80;99.90;;;;;;5076464;28;20553;-62
2023/05/10 06:30:16;;;;;;;4.23;3.90;;;14.70;99.90;;;;;;5075399;28;21009;-61
2023/05/10 06:32:44;;;;;;;5.10;4.30;;;14.70;99.90;;;;;;5090052;28;20491;-62
2023/05/10 06:35:11;;;;;;;3.30;3.00;;;14.70;99.90;;;;;;5091019;27;20528;-62
2023/05/10 06:37:40;;;;;;;4.57;4.17;;;14.80;99.90;;;;;;5072186;28;20484;-62
2023/05/10 06:40:09;;;;;;;4.57;4.03;;;14.80;99.90;;;;;;5095179;28;20477;-62
2023/05/10 06:42:35;;;;;;;5.60;3.20;;;14.60;99.90;;;;;;5088712;28;20487;-62
2023/05/10 06:45:03;;;;;;;3.03;2.73;;;14.80;99.90;;;;;;5079759;28;20485;-61
2023/05/10 06:47:31;;;;;;;6.20;3.53;;;14.90;99.90;;;;;;5083446;28;20480;-61
2023/05/10 06:49:58;;;;;;;7.50;2.90;;;15.00;99.90;;;;;;5096794;27;20543;-62
2023/05/10 06:52:25;;;;;;;3.77;3.47;;;15.00;99.90;;;;;;5088356;28;21118;-61
2023/05/10 06:54:53;;;;;;;6.53;3.10;;;14.90;99.90;;;;;;5079094;28;20703;-62
2023/05/10 06:57:20;;;;;;;4.53;4.03;;;15.00;99.90;;;;;;5084798;28;21032;-62
2023/05/10 06:59:47;;;;;;;3.87;3.57;;;15.00;99.90;;;;;;5072776;28;20487;-62
2023/05/10 07:02:14;;;;;;;3.17;2.97;;;15.00;99.90;;;;;;5089388;28;20476;-62
2023/05/10 07:04:41;;;;;;;3.60;3.30;;;15.00;99.90;;;;;;5075090;27;21024;-62
2023/05/10 07:07:08;;;;;;;3.43;3.13;;;15.00;99.90;;;;;;5103908;27;20490;-62
2023/05/10 07:09:35;;;;;;;2.93;2.60;;;14.80;99.90;;;;;;5086728;28;20470;-62
2023/05/10 07:12:03;;;;;;;2.10;1.83;;;14.80;99.90;;;;;;5080137;28;20479;-61
2023/05/10 07:14:30;;;;;;;2.40;2.13;;;14.80;99.90;;;;;;5095490;28;20477;-62
2023/05/10 07:16:57;;;;;;;2.17;1.97;;;14.80;99.90;;;;;;5077887;28;20576;-61
2023/05/10 07:19:24;;;;;;;3.97;2.67;;;14.80;99.90;;;;;;5079258;28;20478;-62
2023/05/10 07:21:51;;;;;;;2.47;1.73;;;14.70;99.90;;;;;;5084284;27;20559;-62
2023/05/10 07:24:18;;;;;;;7.50;2.50;;;14.70;99.90;;;;;;5080148;28;20470;-63
2023/05/10 07:26:45;;;;;;;2.13;1.93;;;14.80;99.90;;;;;;5096817;28;20494;-62
2023/05/10 07:29:13;;;;;;;2.30;1.70;;;14.90;99.90;;;;;;5074383;28;20478;-62
2023/05/10 07:31:41;;;;;;;2.60;2.40;;;14.90;99.90;;;;;;5072827;28;20485;-62
2023/05/10 07:34:08;;;;;;;2.20;2.00;;;14.90;99.90;;;;;;5098276;28;20482;-63
2023/05/10 07:36:35;;;;;;;2.97;1.93;;;14.80;99.90;;;;;;5089232;28;20600;-62
2023/05/10 07:39:02;;;;;;;6.93;2.07;;;14.90;99.90;;;;;;5076597;28;20482;-62
2023/05/10 07:41:29;;;;;;;5.80;1.30;;;14.90;99.90;;;;;;5078175;28;20474;-61
2023/05/10 07:43:56;;;;;;;3.27;1.87;;;15.00;99.90;;;;;;5075802;28;20888;-62
2023/05/10 07:46:25;;;;;;;5.80;1.70;;;15.00;99.90;;;;;;5084223;28;20478;-62
2023/05/10 07:48:52;;;;;;;2.87;1.13;;;14.90;99.90;;;;;;5082608;28;20466;-62
2023/05/10 07:51:18;;;;;;;2.00;1.60;;;15.10;99.90;;;;;;5087520;28;20479;-62
2023/05/10 07:53:46;;;;;;;3.60;1.10;;;15.30;99.90;;;;;;5087621;28;20484;-62
2023/05/10 07:56:24;;;;;;;1.90;1.27;;;15.70;99.90;;;;;;5087370;28;20475;-62
2023/05/10 07:58:52;;;;;;;1.80;1.33;;;15.80;99.90;;;;;;5081737;28;21042;-62
2023/05/10 08:01:19;;;;;;;6.43;1.67;;;16.00;99.90;;;;;;5099166;28;20465;-62
2023/05/10 08:03:47;;;;;;;5.97;1.73;;;16.00;99.90;;;;;;5093243;28;20485;-62
2023/05/10 08:06:15;;;;;;;2.30;1.10;;;16.00;99.90;;;;;;5085007;28;20830;-62
2023/05/10 08:08:42;;;;;;;1.90;1.60;;;16.00;99.90;;;;;;5076880;28;20498;-62
2023/05/10 08:11:09;;;;;;;1.80;1.27;;;15.90;99.90;;;;;;5081535;28;20485;-62
2023/05/10 08:13:36;;;;;;;2.20;1.63;;;15.90;99.90;;;;;;5087889;28;20548;-62
2023/05/10 08:16:03;;;;;;;2.70;1.60;;;15.70;99.90;;;;;;5077234;28;20476;-61
2023/05/10 08:18:30;;;;;;;2.93;1.63;;;15.60;99.90;;;;;;5082219;28;20482;-62
2023/05/10 08:20:58;;;;;;;3.40;1.93;;;15.60;99.90;;;;;;5091484;28;20496;-61
2023/05/10 08:23:25;;;;;;;4.80;1.30;;;15.40;99.90;;;;;;5079564;28;20482;-62
2023/05/10 08:25:52;;;;;;;3.33;1.67;;;15.40;99.90;;;;;;5079424;28;20481;-62
2023/05/10 08:28:19;;;;;;;3.63;1.50;;;15.40;99.90;;;;;;5082171;28;20470;-62
2023/05/10 08:30:46;;;;;;;4.17;1.80;;;15.50;99.90;;;;;;5086842;27;20484;-61
2023/05/10 08:33:13;;;;;;;2.60;1.90;;;15.50;99.90;;;;;;5094787;27;20845;-63
2023/05/10 08:35:40;;;;;;;3.20;1.80;;;15.40;99.90;;;;;;5078429;28;20474;-62
2023/05/10 08:38:08;;;;;;;3.00;1.50;;;15.50;99.90;;;;;;5080501;28;20474;-63
2023/05/10 08:40:37;;;;;;;2.73;1.80;;;15.50;99.90;;;;;;5082615;28;20892;-62
2023/05/10 08:43:07;;;;;;;8.70;1.80;;;15.60;99.90;;;;;;5097692;28;20838;-61
2023/05/10 08:45:38;;;;;;;5.03;2.20;;;15.80;99.90;;;;;;5073429;28;20535;-61
2023/05/10 08:48:07;;;;;;;4.10;2.20;;;16.10;99.90;;;;;;5081664;28;21049;-62
2023/05/10 08:50:36;;;;;;;8.60;2.83;;;16.40;99.90;;;;;;5076728;27;20470;-61
2023/05/10 08:53:06;;;;;;;4.23;2.57;;;16.80;99.90;;;;;;5084967;28;21172;-61
2023/05/10 08:55:36;;;;;;;5.33;1.93;;;17.00;99.90;;;;;;5082874;28;20596;-61
2023/05/10 08:58:03;;;;;;;6.23;1.97;;;17.30;99.90;;;;;;5078503;28;20490;-61
2023/05/10 09:00:30;;;;;;;2.70;2.00;;;17.50;99.90;;;;;;5075618;28;20486;-62
2023/05/10 09:02:58;;;;;;;4.53;1.50;;;17.40;99.30;;;;;;5073929;28;20553;-62
2023/05/10 09:05:25;;;;;;;9.07;1.87;;;17.10;98.90;;;;;;5112330;27;20480;-62
2023/05/10 09:07:52;;;;;;;3.33;1.50;;;17.10;99.60;;;;;;5094311;27;20482;-62
2023/05/10 09:10:20;;;;;;;2.20;1.87;;;17.00;99.50;;;;;;5085919;28;20465;-62
2023/05/10 09:12:49;;;;;;;3.43;1.83;;;16.90;99.90;;;;;;5081924;28;20494;-63
2023/05/10 09:15:19;;;;;;;4.53;1.70;;;16.90;99.90;;;;;;5074581;28;20493;-62
2023/05/10 09:17:46;;;;;;;2.70;1.80;;;16.80;99.90;;;;;;5079564;28;20829;-62
2023/05/10 09:20:13;;;;;;;5.40;1.93;;;16.60;99.90;;;;;;5094187;27;20488;-62
2023/05/10 09:22:40;;;;;;;5.60;1.70;;;16.40;99.90;;;;;;5093561;27;20851;-62
2023/05/10 09:25:09;;;;;;;2.30;1.57;;;16.30;99.90;;;;;;5081066;28;20515;-62
2023/05/10 09:27:36;;;;;;;2.30;2.00;;;16.30;99.90;;;;;;5089701;27;20469;-62
2023/05/10 09:30:05;;;;;;;4.20;1.80;;;16.00;99.90;;;;;;5091740;27;20489;-62
2023/05/10 09:32:39;;;;;;;4.17;1.67;;;15.80;99.90;;;;;;5067068;28;20863;-62
2023/05/10 09:35:10;;;;;;;4.00;2.30;;;15.70;99.90;;;;;;5072766;28;20470;-61
2023/05/10 09:37:37;;;;;;;3.00;1.60;;;15.80;99.80;;;;;;5086123;27;20479;-61
2023/05/10 09:40:07;;;;;;;5.00;2.10;;;15.80;99.90;;;;;;5077365;27;20499;-61
2023/05/10 09:42:34;;;;;;;6.37;2.10;;;15.60;99.90;;;;;;5088909;27;20478;-61
2023/05/10 09:45:05;;;;;;;2.47;1.57;;;15.90;99.90;;;;;;5094815;27;20532;-62
2023/05/10 09:47:34;;;;;;;3.60;1.87;;;16.00;99.90;;;;;;5106914;27;20482;-61
2023/05/10 09:50:04;;;;;;;5.47;2.00;;;15.90;99.90;;;;;;5094460;27;21367;-61
2023/05/10 09:52:32;;;;;;;3.13;1.40;;;15.90;99.80;;;;;;5098046;28;20816;-62
2023/05/10 09:55:01;;;;;;;10.40;1.70;;;15.30;99.40;;;;;;5090473;28;20575;-61
2023/05/10 09:57:28;;;;;;;5.70;1.47;;;15.90;99.20;;;;;;5095645;27;20868;-61
2023/05/10 09:59:55;;;;;;;2.10;1.50;;;16.00;99.70;;;;;;5074069;28;20486;-61
2023/05/10 10:02:29;;;;;;;3.03;1.40;;;16.20;99.60;;;;;;5083832;27;20488;-62
2023/05/10 10:04:57;;;;;;;5.00;1.47;;;16.50;99.30;;;;;;5084517;27;20489;-61
2023/05/10 10:07:26;;;;;;;4.80;1.77;;;16.40;98.10;;;;;;5076254;28;20540;-61
2023/05/10 10:09:53;;;;;;;2.00;1.33;;;16.00;97.50;;;;;;5066022;28;20494;-61
2023/05/10 10:12:20;;;;;;;2.00;1.10;;;16.00;98.70;;;;;;5096676;27;20468;-61
2023/05/10 10:14:49;;;;;;;2.40;1.43;;;16.00;98.90;;;;;;5079802;28;20519;-61
2023/05/10 10:17:16;;;;;;;3.60;2.30;;;16.00;98.40;;;;;;5090048;28;20481;-61
2023/05/10 10:19:46;;;;;;;3.60;1.80;;;16.00;99.40;;;;;;5097001;28;20478;-61
2023/05/10 10:22:12;;;;;;;2.73;1.40;;;15.90;98.90;;;;;;5099185;28;20484;-61
2023/05/10 10:24:40;;;;;;;2.17;1.53;;;15.80;98.80;;;;;;5088814;28;20585;-62
2023/05/10 10:27:21;;;;;;;4.60;1.77;;;15.80;99.00;;;;;;5093507;28;20473;-62
2023/05/10 10:29:58;;;;;;;1.97;1.23;;;15.80;99.20;;;;;;5079263;28;21159;-62
2023/05/10 10:32:34;;;;;;;2.83;1.33;;;15.70;98.40;;;;;;5074738;28;20465;-62
2023/05/10 10:35:02;;;;;;;2.83;1.23;;;15.60;99.40;;;;;;5086033;28;20482;-62
2023/05/10 10:37:44;;;;;;;5.47;1.80;;;15.50;99.40;;;;;;5094678;28;20462;-62
2023/05/10 10:40:26;;;;;;;2.83;1.43;;;15.50;99.70;;;;;;5087111;27;20473;-62
2023/05/10 10:42:53;;;;;;;5.70;1.50;;;15.70;99.30;;;;;;5075664;28;20474;-62
2023/05/10 10:45:21;;;;;;;3.73;1.50;;;15.70;98.60;;;;;;5066497;28;20721;-62
2023/05/10 10:47:48;;;;;;;9.00;1.47;;;15.80;97.40;;;;;;5092505;28;20480;-62
2023/05/10 10:50:16;;;;;;;5.30;3.93;;;15.80;98.50;;;;;;5095660;28;20547;-62
2023/05/10 10:52:44;;;;;;;3.47;1.10;;;15.60;97.60;;;;;;5079543;28;20885;-62
2023/05/10 10:55:12;;;;;;;3.13;1.47;;;15.60;97.60;;;;;;5081989;28;20503;-62
2023/05/10 10:57:48;;;;;;;4.20;2.03;;;15.70;98.40;;;;;;5088238;27;20581;-63
2023/05/10 11:00:28;;;;;;;2.90;1.40;;;15.80;98.70;;;;;;5085729;28;20501;-61
2023/05/10 11:02:59;;;;;;;5.20;1.40;;;15.90;97.70;;;;;;5065470;28;20490;-61
2023/05/10 11:05:48;;;;;;;3.13;1.13;;;16.00;99.00;;;;;;5081978;28;20469;-62
2023/05/10 11:08:21;;;;;;;2.30;1.23;;;16.20;97.20;;;;;;5089064;28;20484;-61
2023/05/10 11:10:54;;;;;;;2.63;1.10;;;16.10;95.30;;;;;;5084657;28;21197;-61
2023/05/10 11:13:31;;;;;;;10.23;1.10;;;16.10;96.20;;;;;;5090973;28;20474;-61
2023/05/10 11:15:59;;;;;;;2.17;1.40;;;16.20;97.20;;;;;;5089773;28;20490;-61
2023/05/10 11:18:28;;;;;;;7.83;1.67;;;16.00;97.30;;;;;;5076491;28;20482;-61
2023/05/10 11:20:59;;;;;;;2.50;0.90;;;15.80;97.00;;;;;;5078968;28;20475;-61
2023/05/10 11:23:31;;;;;;;3.80;1.37;;;15.80;97.40;;;;;;5079389;28;20466;-61
2023/05/10 11:25:59;;;;;;;3.10;1.30;;;15.90;97.60;;;;;;5084715;28;21138;-62
2023/05/10 11:28:28;;;;;;;1.90;1.17;;;16.00;97.10;;;;;;5079058;28;20846;-61
2023/05/10 11:30:56;;;;;;;2.67;1.40;;;16.00;97.10;;;;;;5076591;28;20966;-62
2023/05/10 11:33:23;;;;;;;3.83;1.53;;;16.20;98.30;;;;;;5097934;28;20485;-62
2023/05/10 11:35:50;;;;;;;2.40;1.20;;;16.30;98.00;;;;;;5083653;28;20482;-62
2023/05/10 11:38:18;;;;;;;4.83;1.20;;;16.40;96.80;;;;;;5079238;28;20463;-62
2023/05/10 11:40:45;;;;;;;2.83;1.20;;;16.60;96.60;;;;;;5073674;28;20475;-62
2023/05/10 11:43:12;;;;;;;6.33;1.77;;;16.70;95.50;;;;;;5078823;28;20478;-62
2023/05/10 11:45:40;;;;;;;3.23;1.03;;;16.80;95.70;;;;;;5081665;28;20485;-62
2023/05/10 11:48:08;;;;;;;2.17;1.20;;;16.80;95.60;;;;;;5072338;28;20989;-62
2023/05/10 11:50:35;;;;;;;2.23;1.43;;;17.00;95.30;;;;;;5079189;28;20469;-62
2023/05/10 11:53:02;;;;;;;1.93;1.10;;;17.10;95.60;;;;;;5096376;28;20474;-62
2023/05/10 11:55:31;;;;;;;1.83;1.20;;;17.40;96.30;;;;;;5078236;28;20492;-63
2023/05/10 11:58:02;;;;;;;2.33;1.00;;;17.40;96.30;;;;;;5086787;27;20540;-62
2023/05/10 12:00:29;;;;;;;1.90;1.10;;;17.50;93.00;;;;;;5080114;27;20930;-62
2023/05/10 12:02:56;;;;;;;4.63;1.40;;;17.50;93.20;;;;;;5075546;28;20551;-62
2023/05/10 12:05:23;;;;;;;2.53;1.20;;;17.30;94.40;;;;;;5077295;28;20873;-62
2023/05/10 12:07:50;;;;;;;1.80;1.10;;;17.70;94.30;;;;;;5097942;28;20478;-62
2023/05/10 12:10:25;;;;;;;3.67;1.20;;;17.60;93.30;;;;;;5100941;27;21035;-62
2023/05/10 12:12:53;;;;;;;5.87;1.50;;;17.60;95.00;;;;;;5082066;27;20470;-62
2023/05/10 12:15:21;;;;;;;4.47;1.30;;;17.90;94.40;;;;;;5098645;27;20493;-62
2023/05/10 12:17:49;;;;;;;1.80;1.10;;;18.00;94.30;;;;;;5100152;27;20491;-62
2023/05/10 12:20:17;;;;;;;7.13;1.00;;;;;;;;;;5083052;28;20502;-62
2023/05/10 12:22:50;;;;;;;4.03;1.27;;;18.30;92.90;;;;;;5080769;28;20485;-62
2023/05/10 12:25:17;;;;;;;3.17;1.40;;;18.50;92.80;;;;;;5087084;28;20474;-63
2023/05/10 12:27:50;;;;;;;2.43;1.00;;;18.50;93.40;;;;;;5086943;28;20479;-62
2023/05/10 12:30:22;;;;;;;2.43;1.20;;;18.60;93.60;;;;;;5080053;28;20489;-63
2023/05/10 12:32:49;;;;;;;2.00;0.83;;;18.70;93.60;;;;;;5092944;27;20985;-63
2023/05/10 12:35:16;;;;;;;2.20;1.00;;;18.60;93.80;;;;;;5098867;27;20857;-63
2023/05/10 12:37:44;;;;;;;3.17;1.27;;;18.60;93.30;;;;;;5086198;28;20509;-63
2023/05/10 12:40:12;;;;;;;2.30;1.50;;;18.40;92.20;;;;;;5080316;28;20982;-63
2023/05/10 12:42:40;;;;;;;3.07;0.93;;;18.40;93.10;;;;;;5079408;28;20497;-62
2023/05/10 12:45:08;;;;;;;1.90;0.93;;;18.50;93.00;;;;;;5083191;27;21062;-62
2023/05/10 12:47:37;;;;;;;1.80;1.20;;;18.30;92.20;;;;;;5085953;27;20462;-62
2023/05/10 12:50:04;;;;;;;2.00;1.10;;;18.30;92.90;;;;;;5079620;28;20483;-62
2023/05/10 12:52:32;;;;;;;3.03;1.20;;;18.40;94.40;;;;;;5088043;28;21018;-62
2023/05/10 12:54:59;;;;;;;2.03;1.23;;;18.60;93.30;;;;;;5088754;28;20487;-62